Harrisonville, NJ (08039)

11:11 AM EDT on August 25, 2016 (GMT -0400)
Lincoln Rd, Pilesgrove | | Change Station

Elev 62 ft 39.68 °N, 75.30 °W | Updated 17 seconds ago

Mostly Cloudy
Mostly Cloudy
81.2 °F
Feels Like 85 °F
N
8.0
Wind Variable Wind from SW
Gusts 11.0 mph

Today
High -- | Low -- °F
--% Chance of Precip.
Yesterday
High -- | Low -- °F
Precip. -- in
Pressure 30.10 in
Visibility 10.0 miles
Clouds Few 8000 ft
Scattered Clouds 16000 ft
Mostly Cloudy 22000 ft
Mostly Cloudy 28000 ft
Heat Index 85 °F
Dew Point 71 °F
Humidity 72%
Rainfall 0.00 in
Snow Depth Not available.
6:23 AM 7:42 PM
Last Quarter, 45% visible
METAR KPHL 251454Z 21013KT 10SM FEW080 SCT160 BKN220 BKN280 28/19 A3010 RMK AO2 SLP193 T02780189 56011
Pressure 30.10 in
Visibility 10.0 miles
Clouds Few 8000 ft
Scattered Clouds 16000 ft
Mostly Cloudy 22000 ft
Mostly Cloudy 28000 ft
Heat Index 85 °F
Dew Point 71 °F
Humidity 72%
Rainfall 0.00 in
Snow Depth Not available.
6:23 AM 7:42 PM
Last Quarter, 45% visible
METAR KPHL 251454Z 21013KT 10SM FEW080 SCT160 BKN220 BKN280 28/19 A3010 RMK AO2 SLP193 T02780189 56011

10-Day Weather Forecast

Almanac

Astronomy

Aug. 25, 2016 Rise Set
Actual Time
Civil Twilight
Nautical Twilight
Astronomical Twilight
Moon
Length of Visible Light
Length of Day
Tomorrow will be .
, % of the Moon is Illuminated

Today's Extremes

State Highs State Lows

Community

WunderPhotos

Upload Photos

1,934,856 photos uploaded!

WunderBlog® & News

Nearby

Air Quality

  Air Quality AQ Index Pollutant
Not available.

Snow Depth

Station Depth Elevation

Earthquake Activity

City Distance Mag. Time & Date
Minimum magnitude displayed is 2.5.

Coastal Water Temperatures

Place Temperature

Stations

Nearby Weather Stations

Station Location Temp. Windchill Dew Point Humidity Wind Precip. Elev Updated Type
                   

Watches & Warnings

There are currently no watches in effect.